createdAt,value
2022-10-17T00:00:31.049Z,14.30
2022-10-17T00:01:32.934Z,14.30
2022-10-17T00:02:34.955Z,14.30
2022-10-17T00:03:38.474Z,14.30
2022-10-17T00:04:40.391Z,14.30
2022-10-17T00:05:47.302Z,14.30
2022-10-17T00:06:49.227Z,14.30
2022-10-17T00:07:51.930Z,14.30
2022-10-17T00:08:53.867Z,14.30
2022-10-17T00:09:55.866Z,14.30
2022-10-17T00:11:04.542Z,14.30
2022-10-17T00:12:06.409Z,14.30
2022-10-17T00:13:09.665Z,14.20
2022-10-17T00:14:11.532Z,14.20
2022-10-17T00:15:18.596Z,14.20
2022-10-17T00:16:28.482Z,14.20
2022-10-17T00:17:31.183Z,14.20
2022-10-17T00:18:33.173Z,14.20
2022-10-17T00:19:35.023Z,14.20
2022-10-17T00:20:36.974Z,14.20
2022-10-17T00:21:39.142Z,14.20
2022-10-17T00:22:41.376Z,14.10
2022-10-17T00:23:43.235Z,14.10
2022-10-17T00:24:45.119Z,14.10
2022-10-17T00:25:46.950Z,14.10
2022-10-17T00:26:50.176Z,14.10
2022-10-17T00:27:52.113Z,14.20
2022-10-17T00:28:54.104Z,14.20
2022-10-17T00:29:55.988Z,14.20
2022-10-17T00:31:03.640Z,14.20
2022-10-17T00:32:05.678Z,14.20
2022-10-17T00:33:07.917Z,14.20
2022-10-17T00:34:09.756Z,14.10
2022-10-17T00:35:11.636Z,14.10
2022-10-17T00:36:19.475Z,14.10
2022-10-17T00:37:21.230Z,14.10
2022-10-17T00:38:23.140Z,14.10
2022-10-17T00:39:25.237Z,14.10
2022-10-17T00:40:27.040Z,14.10
2022-10-17T00:41:32.519Z,14.10
2022-10-17T00:42:34.500Z,14.00
2022-10-17T00:44:00.290Z,14.00
2022-10-17T00:45:16.570Z,14.10
2022-10-17T00:46:19.438Z,14.00
2022-10-17T00:47:22.895Z,14.00
2022-10-17T00:48:26.005Z,14.00
2022-10-17T00:49:31.287Z,14.00
2022-10-17T00:50:34.526Z,14.00
2022-10-17T00:51:42.517Z,14.00
2022-10-17T00:52:46.837Z,14.00
2022-10-17T00:53:51.922Z,14.00
2022-10-17T00:55:00.795Z,14.00
2022-10-17T00:56:02.923Z,14.00
2022-10-17T00:57:05.216Z,14.00
2022-10-17T00:58:07.129Z,14.00
2022-10-17T00:59:12.422Z,14.00
2022-10-17T01:00:15.817Z,14.00
2022-10-17T01:01:17.748Z,14.00
2022-10-17T01:02:22.192Z,14.00
2022-10-17T01:03:24.628Z,14.00
2022-10-17T01:04:26.686Z,14.00
2022-10-17T01:05:29.751Z,14.00
2022-10-17T01:06:31.779Z,14.10
2022-10-17T01:07:37.132Z,14.10
2022-10-17T01:08:39.871Z,14.10
2022-10-17T01:09:43.231Z,14.10
2022-10-17T01:11:06.790Z,14.10
2022-10-17T01:12:21.219Z,14.10
2022-10-17T01:13:40.913Z,14.10
2022-10-17T01:14:48.548Z,14.10
2022-10-17T01:16:06.417Z,14.10
2022-10-17T01:17:25.750Z,14.10
2022-10-17T01:18:56.702Z,14.10
2022-10-17T01:20:42.544Z,14.10
2022-10-17T01:21:50.031Z,14.10
2022-10-17T01:23:06.547Z,14.00
2022-10-17T01:24:20.042Z,14.00
2022-10-17T01:25:57.262Z,14.00
2022-10-17T01:27:09.047Z,14.00
2022-10-17T01:28:14.372Z,14.00
2022-10-17T01:29:54.396Z,14.00
2022-10-17T01:31:16.400Z,14.00
2022-10-17T01:32:24.235Z,14.00
2022-10-17T01:33:35.298Z,14.00
2022-10-17T01:34:44.914Z,14.00
2022-10-17T01:35:54.942Z,14.00
2022-10-17T01:37:19.447Z,14.00
2022-10-17T01:38:27.511Z,14.00
2022-10-17T01:39:50.168Z,14.00
2022-10-17T01:41:00.255Z,14.00
2022-10-17T01:42:13.887Z,14.00
2022-10-17T01:43:34.670Z,14.00
2022-10-17T01:45:27.000Z,14.00
2022-10-17T01:46:36.467Z,14.00
2022-10-17T01:47:40.023Z,14.00
2022-10-17T01:48:45.405Z,14.00
2022-10-17T01:49:50.640Z,14.00
2022-10-17T01:51:00.101Z,14.00
2022-10-17T01:52:10.653Z,14.00
2022-10-17T01:53:19.330Z,14.10
2022-10-17T01:54:26.412Z,14.00
2022-10-17T01:55:39.816Z,14.00
2022-10-17T01:56:42.946Z,14.10
2022-10-17T01:57:53.039Z,14.00
2022-10-17T01:59:00.591Z,14.10
2022-10-17T02:00:08.660Z,14.10
2022-10-17T02:01:15.765Z,14.10
2022-10-17T02:02:18.793Z,14.10
2022-10-17T02:03:23.411Z,14.10
2022-10-17T02:04:26.203Z,14.10
2022-10-17T02:05:39.008Z,14.10
2022-10-17T02:06:40.729Z,14.10
2022-10-17T02:07:48.198Z,14.10
2022-10-17T02:08:51.603Z,14.10
2022-10-17T02:09:55.208Z,14.10
2022-10-17T02:11:09.015Z,14.10
2022-10-17T02:12:33.460Z,14.10
2022-10-17T02:14:02.980Z,14.10
2022-10-17T02:15:17.494Z,14.20
2022-10-17T02:16:49.144Z,14.10
2022-10-17T02:18:03.574Z,14.10
2022-10-17T02:19:18.342Z,14.10
2022-10-17T02:20:24.444Z,14.10
2022-10-17T02:21:45.399Z,14.10
2022-10-17T02:23:10.563Z,14.20
2022-10-17T02:24:22.416Z,14.10
2022-10-17T02:25:41.473Z,14.10
2022-10-17T02:26:46.030Z,14.10
2022-10-17T02:28:06.419Z,14.20
2022-10-17T02:29:08.350Z,14.20
2022-10-17T02:30:10.223Z,14.20
2022-10-17T02:31:20.615Z,14.20
2022-10-17T02:32:35.565Z,14.20
2022-10-17T02:33:56.810Z,14.20
2022-10-17T02:35:02.752Z,14.20
2022-10-17T02:36:15.666Z,14.20
2022-10-17T02:37:29.125Z,14.20
2022-10-17T02:38:32.525Z,14.20
2022-10-17T02:39:35.888Z,14.20
2022-10-17T02:40:39.523Z,14.20
2022-10-17T02:41:43.469Z,14.20
2022-10-17T02:42:48.400Z,14.20
2022-10-17T02:43:56.627Z,14.20
2022-10-17T02:45:02.888Z,14.20
2022-10-17T02:46:07.098Z,14.20
2022-10-17T02:47:23.087Z,14.20
2022-10-17T02:48:48.818Z,14.20
2022-10-17T02:49:53.558Z,14.20
2022-10-17T02:51:24.087Z,14.20
2022-10-17T02:52:52.490Z,14.20
2022-10-17T02:54:28.678Z,14.20
2022-10-17T02:55:34.167Z,14.20
2022-10-17T02:57:03.661Z,14.20
2022-10-17T02:58:15.035Z,14.20
2022-10-17T02:59:21.497Z,14.20
2022-10-17T03:00:25.057Z,14.20
2022-10-17T03:01:28.875Z,14.20
2022-10-17T03:02:43.385Z,14.20
2022-10-17T03:03:45.257Z,14.20
2022-10-17T03:04:47.470Z,14.20
2022-10-17T03:05:52.176Z,14.20
2022-10-17T03:06:56.215Z,14.20
2022-10-17T03:07:58.239Z,14.20
2022-10-17T03:09:00.143Z,14.20
2022-10-17T03:10:03.275Z,14.30
2022-10-17T03:11:05.287Z,14.30
2022-10-17T03:12:07.426Z,14.30
2022-10-17T03:13:10.315Z,14.30
2022-10-17T03:14:14.922Z,14.30
2022-10-17T03:15:17.147Z,14.30
2022-10-17T03:16:18.958Z,14.30
2022-10-17T03:17:20.918Z,14.30
2022-10-17T03:18:22.828Z,14.30
2022-10-17T03:19:27.045Z,14.30
2022-10-17T03:20:29.051Z,14.30
2022-10-17T03:21:30.937Z,14.30
2022-10-17T03:22:33.136Z,14.40
2022-10-17T03:23:36.850Z,14.40
2022-10-17T03:24:40.051Z,14.40
2022-10-17T03:25:42.045Z,14.40
2022-10-17T03:26:43.922Z,14.40
2022-10-17T03:27:46.064Z,14.40
2022-10-17T03:28:50.673Z,14.40
2022-10-17T03:29:56.605Z,14.40
2022-10-17T03:30:58.334Z,14.40
2022-10-17T03:32:00.160Z,14.40
2022-10-17T03:33:01.981Z,14.40
2022-10-17T03:34:04.086Z,14.50
2022-10-17T03:35:07.073Z,14.40
2022-10-17T03:36:12.102Z,14.50
2022-10-17T03:37:14.029Z,14.50
2022-10-17T03:38:16.809Z,14.40
2022-10-17T03:39:18.793Z,14.40
2022-10-17T03:40:20.634Z,14.50
2022-10-17T03:41:22.825Z,14.50
2022-10-17T03:42:24.832Z,14.40
2022-10-17T03:43:26.605Z,14.50
2022-10-17T03:44:28.628Z,14.50
2022-10-17T03:45:30.455Z,14.50
2022-10-17T03:46:32.326Z,14.50
2022-10-17T03:47:35.810Z,14.50
2022-10-17T03:48:37.894Z,14.50
2022-10-17T03:49:40.630Z,14.50
2022-10-17T03:50:42.572Z,14.50
2022-10-17T03:51:44.478Z,14.50
2022-10-17T03:52:49.700Z,14.50
2022-10-17T03:53:51.686Z,14.50
2022-10-17T03:54:53.644Z,14.50
2022-10-17T03:55:56.029Z,14.50
2022-10-17T03:56:58.335Z,14.50
2022-10-17T03:58:00.198Z,14.50
2022-10-17T03:59:02.169Z,14.50
2022-10-17T04:00:06.492Z,14.50
2022-10-17T04:01:17.842Z,14.50
2022-10-17T04:02:21.036Z,14.50
2022-10-17T04:03:24.686Z,14.50
2022-10-17T04:04:26.954Z,14.50
2022-10-17T04:05:28.667Z,14.50
2022-10-17T04:06:31.617Z,14.50
2022-10-17T04:07:34.310Z,14.60
2022-10-17T04:08:37.353Z,14.60
2022-10-17T04:09:46.823Z,14.60
2022-10-17T04:10:53.430Z,14.60
2022-10-17T04:11:55.412Z,14.60
2022-10-17T04:12:58.003Z,14.60
2022-10-17T04:14:00.018Z,14.60
2022-10-17T04:15:03.628Z,14.60
2022-10-17T04:16:07.946Z,14.60
2022-10-17T04:17:14.206Z,14.60
2022-10-17T04:18:16.145Z,14.60
2022-10-17T04:19:17.943Z,14.60
2022-10-17T04:20:22.227Z,14.60
2022-10-17T04:21:26.658Z,14.60
2022-10-17T04:22:29.106Z,14.60
2022-10-17T04:23:32.523Z,14.60
2022-10-17T04:24:41.444Z,14.60
2022-10-17T04:26:04.823Z,14.60
2022-10-17T04:27:06.870Z,14.60
2022-10-17T04:28:12.667Z,14.60
2022-10-17T04:29:15.316Z,14.60
2022-10-17T04:30:19.082Z,14.60
2022-10-17T04:31:21.551Z,14.60
2022-10-17T04:32:39.807Z,14.60
2022-10-17T04:33:52.068Z,14.60
2022-10-17T04:34:53.889Z,14.60
2022-10-17T04:36:01.095Z,14.50
2022-10-17T04:37:04.544Z,14.60
2022-10-17T04:38:06.581Z,14.60
2022-10-17T04:39:08.592Z,14.60
2022-10-17T04:40:11.385Z,14.60
2022-10-17T04:41:18.194Z,14.60
2022-10-17T04:42:20.006Z,14.60
2022-10-17T04:43:22.675Z,14.60
2022-10-17T04:44:24.613Z,14.60
2022-10-17T04:45:27.577Z,14.60
2022-10-17T04:46:34.571Z,14.60
2022-10-17T04:47:36.679Z,14.60
2022-10-17T04:48:39.813Z,14.60
2022-10-17T04:50:58.534Z,14.60
2022-10-17T04:52:07.445Z,14.60
2022-10-17T04:53:18.473Z,14.60
2022-10-17T04:54:20.307Z,14.60
2022-10-17T04:55:27.154Z,14.60
2022-10-17T04:56:29.183Z,14.60
2022-10-17T04:57:35.649Z,14.70
2022-10-17T04:58:48.273Z,14.70
2022-10-17T04:59:50.323Z,14.70
2022-10-17T05:01:22.820Z,14.70
2022-10-17T05:02:28.166Z,14.70
2022-10-17T05:03:30.608Z,14.70
2022-10-17T05:04:32.715Z,14.70
2022-10-17T05:05:38.850Z,14.70
2022-10-17T05:06:40.736Z,14.70
2022-10-17T05:08:02.872Z,14.70
2022-10-17T05:09:09.692Z,14.70
2022-10-17T05:10:12.182Z,14.60
2022-10-17T05:11:25.624Z,14.60
2022-10-17T05:12:28.076Z,14.60
2022-10-17T05:13:30.227Z,14.70
2022-10-17T05:14:32.585Z,14.60
2022-10-17T05:15:36.139Z,14.70
2022-10-17T05:16:38.659Z,14.70
2022-10-17T05:17:40.582Z,14.70
2022-10-17T05:18:42.690Z,14.70
2022-10-17T05:19:44.848Z,14.70
2022-10-17T05:20:46.620Z,14.70
2022-10-17T05:21:48.439Z,14.70
2022-10-17T05:22:50.332Z,14.70
2022-10-17T05:23:53.239Z,14.70
2022-10-17T05:24:55.169Z,14.70
2022-10-17T05:25:57.169Z,14.70
2022-10-17T05:26:59.435Z,14.70
2022-10-17T05:28:01.234Z,14.70
2022-10-17T05:29:03.862Z,14.70
2022-10-17T05:30:08.556Z,14.70
2022-10-17T05:31:12.217Z,14.70
2022-10-17T05:32:15.547Z,14.70
2022-10-17T05:33:17.478Z,14.70
2022-10-17T05:34:20.286Z,14.70
2022-10-17T05:35:22.458Z,14.80
2022-10-17T05:36:24.323Z,14.80
2022-10-17T05:37:26.470Z,14.80
2022-10-17T05:38:31.034Z,14.80
2022-10-17T05:39:32.894Z,14.80
2022-10-17T05:40:35.109Z,14.80
2022-10-17T05:41:37.627Z,14.80
2022-10-17T05:43:47.246Z,14.80
2022-10-17T05:44:53.882Z,14.80
2022-10-17T05:45:56.493Z,14.80
2022-10-17T05:46:59.182Z,14.80
2022-10-17T05:48:02.447Z,14.80
2022-10-17T05:49:14.695Z,14.80
2022-10-17T05:50:26.786Z,14.80
2022-10-17T05:52:47.325Z,14.80
2022-10-17T05:53:51.213Z,14.80
2022-10-17T05:54:59.292Z,14.80
2022-10-17T05:56:05.627Z,14.80
2022-10-17T05:57:07.906Z,14.80
2022-10-17T05:58:17.734Z,14.80
2022-10-17T05:59:28.499Z,14.80
2022-10-17T06:00:41.003Z,14.80
2022-10-17T06:01:42.951Z,14.80
2022-10-17T06:02:48.620Z,14.80
2022-10-17T06:03:51.967Z,14.80
2022-10-17T06:04:53.847Z,14.90
2022-10-17T06:06:04.330Z,14.90
2022-10-17T06:07:09.012Z,14.90
2022-10-17T06:08:11.592Z,14.90
2022-10-17T06:09:13.750Z,14.90
2022-10-17T06:10:19.689Z,14.90
2022-10-17T06:11:24.742Z,14.90
2022-10-17T06:12:26.835Z,14.90
2022-10-17T06:13:30.071Z,14.90
2022-10-17T06:14:34.663Z,14.90
2022-10-17T06:15:38.488Z,14.90
2022-10-17T06:16:43.676Z,14.90
2022-10-17T06:17:45.520Z,14.90
2022-10-17T06:19:54.267Z,14.90
2022-10-17T06:21:02.833Z,14.90
2022-10-17T06:22:04.745Z,14.90
2022-10-17T06:23:08.709Z,14.90
2022-10-17T06:24:29.342Z,14.90
2022-10-17T06:25:32.248Z,14.90
2022-10-17T06:26:34.261Z,14.90
2022-10-17T06:27:36.319Z,14.90
2022-10-17T06:28:38.863Z,14.90
2022-10-17T06:29:40.752Z,14.90
2022-10-17T06:30:42.568Z,14.90
2022-10-17T06:31:44.458Z,14.90
2022-10-17T06:32:46.283Z,14.90
2022-10-17T06:33:48.190Z,14.90
2022-10-17T06:34:50.024Z,14.90
2022-10-17T06:35:55.981Z,14.90
2022-10-17T06:36:59.813Z,15.00
2022-10-17T06:38:01.712Z,15.00
2022-10-17T06:39:04.122Z,15.00
2022-10-17T06:40:16.826Z,14.90
2022-10-17T06:41:19.786Z,15.00
2022-10-17T06:42:21.633Z,15.00
2022-10-17T06:43:43.388Z,15.00
2022-10-17T06:45:04.385Z,15.00
2022-10-17T06:46:30.067Z,15.00
2022-10-17T06:47:35.825Z,15.00
2022-10-17T06:48:46.268Z,15.00
2022-10-17T06:50:04.465Z,15.00
2022-10-17T06:51:13.100Z,15.00
2022-10-17T06:52:33.687Z,15.00
2022-10-17T06:53:54.436Z,15.00
2022-10-17T06:55:23.071Z,15.00
2022-10-17T06:56:48.359Z,15.00
2022-10-17T06:57:56.985Z,15.10
2022-10-17T06:59:17.664Z,15.10
2022-10-17T07:00:40.370Z,15.10
2022-10-17T07:01:46.083Z,15.10
2022-10-17T07:02:49.818Z,15.20
2022-10-17T07:03:52.351Z,15.20
2022-10-17T07:04:54.312Z,15.20
2022-10-17T07:05:57.166Z,15.20
2022-10-17T07:07:17.795Z,15.20
2022-10-17T07:08:20.246Z,15.20
2022-10-17T07:09:22.901Z,15.20
2022-10-17T07:10:26.644Z,15.20
2022-10-17T07:11:28.704Z,15.20
2022-10-17T07:12:30.497Z,15.30
2022-10-17T07:13:36.762Z,15.30
2022-10-17T07:14:41.033Z,15.30
2022-10-17T07:15:43.348Z,15.30
2022-10-17T07:16:45.803Z,15.30
2022-10-17T07:17:53.927Z,15.30
2022-10-17T07:18:56.462Z,15.30
2022-10-17T07:19:58.281Z,15.40
2022-10-17T07:21:00.996Z,15.40
2022-10-17T07:22:02.815Z,15.40
2022-10-17T07:23:06.155Z,15.40
2022-10-17T07:24:08.047Z,15.40
2022-10-17T07:25:10.266Z,15.40
2022-10-17T07:26:20.535Z,15.40
2022-10-17T07:27:23.118Z,15.40
2022-10-17T07:28:26.415Z,15.40
2022-10-17T07:29:28.894Z,15.50
2022-10-17T07:31:15.161Z,15.50
2022-10-17T07:32:17.071Z,15.50
2022-10-17T07:33:19.094Z,15.50
2022-10-17T07:34:21.307Z,15.50
2022-10-17T07:35:24.055Z,15.50
2022-10-17T07:36:26.354Z,15.50
2022-10-17T07:37:29.843Z,15.50
2022-10-17T07:38:32.539Z,15.60
2022-10-17T07:39:35.685Z,15.50
2022-10-17T07:40:40.807Z,15.60
2022-10-17T07:41:43.443Z,15.60
2022-10-17T07:42:45.876Z,15.60
2022-10-17T07:43:49.146Z,15.60
2022-10-17T07:44:55.103Z,15.60
2022-10-17T07:45:57.907Z,15.60
2022-10-17T07:47:00.863Z,15.60
2022-10-17T07:48:02.679Z,15.60
2022-10-17T07:49:06.850Z,15.60
2022-10-17T07:50:09.377Z,15.60
2022-10-17T07:51:12.467Z,15.60
2022-10-17T07:52:15.489Z,15.60
2022-10-17T07:53:17.926Z,15.70
2022-10-17T07:54:19.940Z,15.70
2022-10-17T07:55:21.910Z,15.70
2022-10-17T07:56:24.796Z,15.70
2022-10-17T07:57:26.828Z,15.70
2022-10-17T07:58:29.539Z,15.80
2022-10-17T07:59:33.506Z,15.80
2022-10-17T08:00:38.994Z,15.80
2022-10-17T08:01:41.240Z,15.80
2022-10-17T08:02:43.249Z,15.80
2022-10-17T08:03:47.621Z,15.80
2022-10-17T08:04:53.464Z,15.80
2022-10-17T08:06:02.029Z,15.80
2022-10-17T08:07:19.086Z,15.80
2022-10-17T08:08:21.968Z,15.90
2022-10-17T08:09:23.804Z,15.80
2022-10-17T08:10:29.900Z,15.80
2022-10-17T08:11:32.234Z,15.80
2022-10-17T08:12:34.635Z,15.90
2022-10-17T08:13:39.238Z,15.80
2022-10-17T08:14:42.629Z,15.90
2022-10-17T08:15:44.677Z,15.90
2022-10-17T08:16:46.832Z,16.00
2022-10-17T08:17:49.682Z,16.00
2022-10-17T08:18:51.953Z,16.00
2022-10-17T08:19:53.817Z,16.10
2022-10-17T08:21:00.222Z,16.10
2022-10-17T08:22:02.548Z,16.10
2022-10-17T08:23:04.618Z,16.20
2022-10-17T08:24:06.949Z,16.20
2022-10-17T08:25:09.562Z,16.20
2022-10-17T08:26:13.596Z,16.20
2022-10-17T08:27:21.437Z,16.30
2022-10-17T08:28:23.655Z,16.30
2022-10-17T08:29:26.615Z,16.30
2022-10-17T08:30:31.238Z,16.30
2022-10-17T08:31:34.010Z,16.30
2022-10-17T08:32:35.825Z,16.40
2022-10-17T08:33:38.424Z,16.40
2022-10-17T08:34:40.235Z,16.40
2022-10-17T08:35:42.265Z,16.40
2022-10-17T08:36:44.121Z,16.40
2022-10-17T08:37:45.908Z,16.40
2022-10-17T08:38:51.814Z,16.50
2022-10-17T08:39:54.673Z,16.50
2022-10-17T08:41:02.764Z,16.50
2022-10-17T08:42:13.481Z,16.60
2022-10-17T08:43:31.236Z,16.60
2022-10-17T08:44:52.292Z,16.60
2022-10-17T08:46:03.156Z,16.60
2022-10-17T08:47:13.004Z,16.60
2022-10-17T08:48:20.088Z,16.70
2022-10-17T08:49:42.280Z,16.70
2022-10-17T08:50:53.371Z,16.70
2022-10-17T08:52:02.896Z,16.70
2022-10-17T08:53:04.990Z,16.70
2022-10-17T08:54:18.835Z,16.70
2022-10-17T08:55:44.618Z,16.70
2022-10-17T08:56:51.322Z,16.70
2022-10-17T08:57:53.409Z,16.70
2022-10-17T08:58:55.576Z,16.70
2022-10-17T08:59:57.987Z,16.70
2022-10-17T09:01:25.931Z,16.70
2022-10-17T09:02:34.705Z,16.60
2022-10-17T09:04:02.033Z,16.60
2022-10-17T09:05:27.680Z,16.60
2022-10-17T09:06:39.451Z,16.60
2022-10-17T09:08:02.090Z,16.60
2022-10-17T09:09:22.417Z,16.50
2022-10-17T09:10:42.210Z,16.50
2022-10-17T09:11:46.798Z,16.60
2022-10-17T09:13:16.541Z,16.60
2022-10-17T09:14:37.254Z,16.60
2022-10-17T09:15:42.206Z,16.60
2022-10-17T09:17:15.987Z,16.60
2022-10-17T09:18:38.711Z,16.60
2022-10-17T09:19:49.176Z,16.60
2022-10-17T09:21:20.504Z,16.60
2022-10-17T09:22:26.276Z,16.60
2022-10-17T09:23:42.790Z,16.60
2022-10-17T09:24:55.669Z,16.60
2022-10-17T09:26:01.236Z,16.60
2022-10-17T09:27:03.781Z,16.60
2022-10-17T09:28:20.424Z,16.60
2022-10-17T09:29:24.427Z,16.60
2022-10-17T09:30:45.863Z,16.60
2022-10-17T09:32:15.698Z,16.70
2022-10-17T09:33:28.499Z,16.70
2022-10-17T09:34:37.731Z,16.70
2022-10-17T09:35:42.467Z,16.70
2022-10-17T09:36:44.333Z,16.70
2022-10-17T09:37:46.648Z,16.80
2022-10-17T09:38:58.269Z,16.80
2022-10-17T09:40:00.147Z,16.80
2022-10-17T09:41:03.088Z,16.80
2022-10-17T09:42:05.472Z,16.80
2022-10-17T09:43:11.359Z,16.80
2022-10-17T09:44:29.854Z,16.80
2022-10-17T09:45:37.845Z,16.80
2022-10-17T09:46:40.158Z,16.80
2022-10-17T09:49:13.431Z,16.80
2022-10-17T09:50:24.531Z,16.80
2022-10-17T09:51:26.987Z,16.80
2022-10-17T09:52:35.305Z,16.80
2022-10-17T09:53:43.196Z,16.80
2022-10-17T09:54:49.218Z,16.80
2022-10-17T09:55:59.063Z,16.90
2022-10-17T09:57:02.834Z,16.90
2022-10-17T09:58:10.138Z,16.90
2022-10-17T09:59:14.008Z,16.90
2022-10-17T10:00:27.713Z,16.90
2022-10-17T10:01:32.631Z,17.00
2022-10-17T10:02:41.536Z,17.00
2022-10-17T10:03:43.906Z,17.00
2022-10-17T10:05:09.805Z,17.00
2022-10-17T10:06:16.602Z,17.00
2022-10-17T10:07:28.249Z,17.00
2022-10-17T10:08:59.135Z,17.00
2022-10-17T10:10:09.584Z,17.00
2022-10-17T10:11:14.030Z,17.00
2022-10-17T10:12:27.970Z,17.00
2022-10-17T10:13:31.941Z,17.10
2022-10-17T10:14:37.083Z,17.10
2022-10-17T10:15:41.710Z,17.10
2022-10-17T10:16:45.529Z,17.10
2022-10-17T10:17:48.143Z,17.10
2022-10-17T10:18:52.173Z,17.20
2022-10-17T10:19:56.725Z,17.20
2022-10-17T10:21:23.277Z,17.20
2022-10-17T10:22:25.934Z,17.20
2022-10-17T10:23:27.945Z,17.20
2022-10-17T10:24:31.353Z,17.20
2022-10-17T10:25:37.396Z,17.20
2022-10-17T10:26:54.268Z,17.20
2022-10-17T10:27:58.245Z,17.20
2022-10-17T10:29:07.246Z,17.20
2022-10-17T10:30:19.043Z,17.20
2022-10-17T10:31:44.756Z,17.20
2022-10-17T10:33:00.856Z,17.20
2022-10-17T10:34:14.770Z,17.20
2022-10-17T10:35:28.908Z,17.10
2022-10-17T10:36:58.239Z,17.20
2022-10-17T10:38:03.991Z,17.20
2022-10-17T10:39:10.404Z,17.20
2022-10-17T10:40:26.835Z,17.20
2022-10-17T10:41:48.694Z,17.20
2022-10-17T10:42:55.883Z,17.20
2022-10-17T10:44:03.728Z,17.20
2022-10-17T10:45:46.470Z,17.20
2022-10-17T10:46:46.469Z,17.20
2022-10-17T10:48:03.806Z,17.20
2022-10-17T10:49:30.194Z,17.20
2022-10-17T10:50:51.627Z,17.20
2022-10-17T10:51:54.658Z,17.20
2022-10-17T10:53:22.789Z,17.20
2022-10-17T10:54:35.038Z,17.20
2022-10-17T10:56:02.569Z,17.20
2022-10-17T10:57:08.412Z,17.20
2022-10-17T10:58:36.741Z,17.20
2022-10-17T11:00:01.599Z,17.20
2022-10-17T11:01:32.394Z,17.20
2022-10-17T11:02:54.134Z,17.30
2022-10-17T11:04:10.880Z,17.30
2022-10-17T11:05:25.305Z,17.30
2022-10-17T11:06:36.258Z,17.30
2022-10-17T11:08:02.764Z,17.30
2022-10-17T11:09:28.816Z,17.30
2022-10-17T11:11:14.247Z,17.30
2022-10-17T11:12:26.301Z,17.30
2022-10-17T11:13:40.590Z,17.30
2022-10-17T11:14:57.793Z,17.30
2022-10-17T11:16:20.234Z,17.30
2022-10-17T11:17:54.532Z,17.30
2022-10-17T11:19:23.002Z,17.30
2022-10-17T11:20:34.635Z,17.40
2022-10-17T11:21:47.767Z,17.30
2022-10-17T11:22:59.376Z,17.40
2022-10-17T11:24:32.894Z,17.30
2022-10-17T11:25:40.958Z,17.40
2022-10-17T11:27:07.038Z,17.30
2022-10-17T11:28:19.131Z,17.30
2022-10-17T11:29:28.955Z,17.30
2022-10-17T11:30:58.114Z,17.30
2022-10-17T11:32:15.178Z,17.30
2022-10-17T11:33:58.068Z,17.30
2022-10-17T11:35:07.394Z,17.30
2022-10-17T11:36:10.540Z,17.30
2022-10-17T11:37:25.092Z,17.30
2022-10-17T11:38:46.362Z,17.30
2022-10-17T11:39:57.405Z,17.30
2022-10-17T11:41:00.807Z,17.30
2022-10-17T11:42:10.201Z,17.30
2022-10-17T11:43:27.780Z,17.30
2022-10-17T11:44:41.019Z,17.30
2022-10-17T11:45:53.603Z,17.30
2022-10-17T11:47:14.797Z,17.30
2022-10-17T11:48:26.647Z,17.40
2022-10-17T11:49:47.306Z,17.40
2022-10-17T11:52:56.314Z,17.40
2022-10-17T11:54:19.273Z,17.40
2022-10-17T11:55:24.805Z,17.40
2022-10-17T11:56:52.205Z,17.40
2022-10-17T11:58:07.340Z,17.50
2022-10-17T11:59:30.322Z,17.50
2022-10-17T12:01:00.825Z,17.50
2022-10-17T12:02:12.151Z,17.50
2022-10-17T12:03:29.266Z,17.50
2022-10-17T12:04:50.633Z,17.50
2022-10-17T12:05:59.824Z,17.50
2022-10-17T12:07:08.052Z,17.60
2022-10-17T12:08:22.065Z,17.60
2022-10-17T12:09:48.003Z,17.60
2022-10-17T12:10:58.923Z,17.60
2022-10-17T12:12:04.602Z,17.60
2022-10-17T12:13:28.776Z,17.60
2022-10-17T12:14:34.189Z,17.70
2022-10-17T12:15:37.434Z,17.70
2022-10-17T12:16:47.969Z,17.70
2022-10-17T12:18:01.579Z,17.70
2022-10-17T12:19:06.613Z,17.70
2022-10-17T12:20:21.962Z,17.70
2022-10-17T12:21:28.415Z,17.70
2022-10-17T12:22:34.717Z,17.70
2022-10-17T12:23:40.450Z,17.70
2022-10-17T12:24:46.773Z,17.70
2022-10-17T12:25:57.093Z,17.70
2022-10-17T12:27:24.720Z,17.70
2022-10-17T12:28:46.371Z,17.70
2022-10-17T12:30:08.616Z,17.70
2022-10-17T12:31:29.616Z,17.70
2022-10-17T12:32:53.333Z,17.70
2022-10-17T12:34:04.915Z,17.70
2022-10-17T12:35:22.479Z,17.70
2022-10-17T12:36:28.160Z,17.70
2022-10-17T12:38:04.704Z,17.70
2022-10-17T12:39:12.269Z,17.70
2022-10-17T12:40:37.278Z,17.70
2022-10-17T12:41:40.468Z,17.70
2022-10-17T12:42:51.092Z,17.70
2022-10-17T12:43:55.094Z,17.70
2022-10-17T12:44:57.437Z,17.70
2022-10-17T12:46:06.911Z,17.70
2022-10-17T12:47:09.506Z,17.70
2022-10-17T12:48:11.781Z,17.70
2022-10-17T12:49:39.854Z,17.70
2022-10-17T12:51:30.821Z,17.70
2022-10-17T12:52:32.155Z,17.60
2022-10-17T12:53:49.213Z,17.60
2022-10-17T12:55:13.103Z,17.60
2022-10-17T12:56:21.049Z,17.60
2022-10-17T12:57:42.667Z,17.60
2022-10-17T12:58:50.199Z,17.60
2022-10-17T12:59:56.686Z,17.60
2022-10-17T13:02:27.081Z,17.60
2022-10-17T13:03:32.943Z,17.60
2022-10-17T13:04:36.791Z,17.60
2022-10-17T13:05:42.408Z,17.60
2022-10-17T13:06:48.282Z,17.60
2022-10-17T13:07:52.244Z,17.60
2022-10-17T13:09:07.721Z,17.60
2022-10-17T13:10:20.627Z,17.60
2022-10-17T13:11:25.834Z,17.60
2022-10-17T13:12:28.348Z,17.60
2022-10-17T13:13:49.753Z,17.60
2022-10-17T13:14:53.985Z,17.60
2022-10-17T13:15:55.896Z,17.60
2022-10-17T13:17:05.932Z,17.60
2022-10-17T13:18:22.355Z,17.60
2022-10-17T13:19:28.856Z,17.70
2022-10-17T13:20:33.127Z,17.70
2022-10-17T13:21:34.934Z,17.70
2022-10-17T13:22:45.348Z,17.70
2022-10-17T13:23:49.357Z,17.80
2022-10-17T13:24:53.277Z,17.80
2022-10-17T13:26:26.332Z,17.80
2022-10-17T13:27:33.962Z,17.90
2022-10-17T13:28:39.361Z,17.90
2022-10-17T13:29:44.935Z,17.90
2022-10-17T13:30:49.458Z,17.90
2022-10-17T13:31:59.636Z,18.00
2022-10-17T13:33:02.640Z,18.00
2022-10-17T13:34:15.508Z,18.00
2022-10-17T13:35:59.034Z,18.00
2022-10-17T13:37:01.753Z,18.00
2022-10-17T13:38:07.775Z,18.00
2022-10-17T13:39:16.993Z,18.00
2022-10-17T13:41:50.013Z,18.00
2022-10-17T13:42:54.736Z,18.00
2022-10-17T13:43:58.312Z,17.90
2022-10-17T13:45:00.299Z,17.90
2022-10-17T13:46:25.391Z,17.90
2022-10-17T13:47:30.497Z,17.90
2022-10-17T13:48:39.405Z,17.90
2022-10-17T13:49:42.942Z,17.90
2022-10-17T13:50:50.178Z,17.90
2022-10-17T13:51:54.235Z,17.90
2022-10-17T13:53:17.459Z,17.90
2022-10-17T13:54:36.455Z,17.90
2022-10-17T13:55:38.603Z,17.80
2022-10-17T13:56:41.119Z,17.80
2022-10-17T13:57:43.022Z,17.80
2022-10-17T13:58:50.845Z,17.90
2022-10-17T13:59:56.168Z,17.90
2022-10-17T14:00:58.387Z,17.90
2022-10-17T14:02:02.045Z,17.90
2022-10-17T14:03:05.031Z,17.90
2022-10-17T14:04:11.919Z,17.90
2022-10-17T14:05:21.033Z,17.90
2022-10-17T14:06:25.423Z,17.90
2022-10-17T14:07:58.161Z,17.90
2022-10-17T14:09:05.619Z,17.90
2022-10-17T14:10:30.665Z,17.90
2022-10-17T14:11:34.044Z,17.90
2022-10-17T14:12:36.015Z,17.90
2022-10-17T14:13:37.840Z,17.90
2022-10-17T14:15:09.232Z,17.90
2022-10-17T14:16:10.325Z,18.00
2022-10-17T14:17:21.949Z,17.90
2022-10-17T14:18:35.684Z,17.90
2022-10-17T14:19:38.893Z,18.00
2022-10-17T14:21:19.895Z,18.00
2022-10-17T14:22:27.134Z,18.00
2022-10-17T14:23:39.337Z,18.00
2022-10-17T14:24:42.350Z,18.00
2022-10-17T14:25:44.397Z,18.00
2022-10-17T14:26:51.859Z,18.00
2022-10-17T14:28:15.849Z,18.00
2022-10-17T14:29:21.242Z,18.00
2022-10-17T14:30:51.675Z,17.90
2022-10-17T14:31:50.723Z,17.90
2022-10-17T14:32:57.458Z,17.90
2022-10-17T14:34:01.123Z,17.90
2022-10-17T14:35:30.252Z,17.90
2022-10-17T14:36:39.595Z,17.90
2022-10-17T14:37:47.869Z,18.00
2022-10-17T14:38:52.249Z,18.00
2022-10-17T14:39:55.299Z,18.00
2022-10-17T14:41:30.243Z,18.00
2022-10-17T14:42:23.585Z,18.00
2022-10-17T14:43:28.042Z,18.00
2022-10-17T14:44:32.604Z,18.10
2022-10-17T14:45:37.357Z,18.10
2022-10-17T14:46:50.313Z,18.10
2022-10-17T14:47:54.849Z,18.10
2022-10-17T14:49:14.218Z,18.10
2022-10-17T14:50:16.388Z,18.10
2022-10-17T14:51:19.113Z,18.10
2022-10-17T14:52:26.669Z,18.10
2022-10-17T14:53:30.514Z,18.10
2022-10-17T14:54:36.255Z,18.10
2022-10-17T14:55:41.043Z,18.10
2022-10-17T14:56:49.812Z,18.00